createdAt,value
2018-07-20T00:00:03.031Z,18.08
2018-07-20T00:02:33.167Z,18.03
2018-07-20T00:05:03.463Z,18.06
2018-07-20T00:07:33.610Z,17.99
2018-07-20T00:10:03.924Z,17.95
2018-07-20T00:12:34.572Z,17.97
2018-07-20T00:15:05.330Z,18.01
2018-07-20T00:17:35.638Z,18.06
2018-07-20T00:20:06.625Z,18.07
2018-07-20T00:22:36.781Z,18.13
2018-07-20T00:25:07.119Z,18.09
2018-07-20T00:27:37.438Z,18.14
2018-07-20T00:30:08.203Z,18.10
2018-07-20T00:32:38.919Z,18.01
2018-07-20T00:35:10.021Z,17.95
2018-07-20T00:37:40.349Z,17.91
2018-07-20T00:40:10.553Z,17.86
2018-07-20T00:42:40.899Z,17.78
2018-07-20T00:45:11.764Z,17.76
2018-07-20T00:47:42.490Z,17.73
2018-07-20T00:50:12.978Z,17.70
2018-07-20T00:52:43.236Z,17.73
2018-07-20T00:55:13.668Z,17.71
2018-07-20T00:57:44.623Z,17.59
2018-07-20T01:00:14.977Z,17.45
2018-07-20T01:02:45.892Z,17.46
2018-07-20T01:05:16.483Z,17.38
2018-07-20T01:07:47.433Z,17.32
2018-07-20T01:10:17.827Z,17.34
2018-07-20T01:12:48.221Z,17.31
2018-07-20T01:15:18.494Z,17.26
2018-07-20T01:17:49.541Z,17.19
2018-07-20T01:20:19.921Z,17.20
2018-07-20T01:22:50.300Z,17.21
2018-07-20T01:25:21.118Z,17.19
2018-07-20T01:27:51.709Z,17.17
2018-07-20T01:30:22.062Z,17.15
2018-07-20T01:32:52.305Z,17.19
2018-07-20T01:35:23.188Z,17.19
2018-07-20T01:37:54.131Z,17.16
2018-07-20T01:40:24.402Z,17.19
2018-07-20T01:42:55.547Z,17.12
2018-07-20T01:45:26.166Z,17.09
2018-07-20T01:47:56.494Z,16.95
2018-07-20T01:50:27.022Z,16.93
2018-07-20T01:52:57.320Z,17.01
2018-07-20T01:55:27.785Z,16.88
2018-07-20T01:57:58.080Z,16.76
2018-07-20T02:00:28.319Z,16.62
2018-07-20T02:02:58.872Z,16.61
2018-07-20T02:05:29.137Z,16.62
2018-07-20T02:07:59.721Z,16.67
2018-07-20T02:10:30.024Z,16.64
2018-07-20T02:13:00.330Z,16.54
2018-07-20T02:15:30.551Z,16.54
2018-07-20T02:18:00.907Z,16.52
2018-07-20T02:20:31.850Z,16.46
2018-07-20T02:23:02.008Z,16.42
2018-07-20T02:25:38.170Z,16.34
2018-07-20T02:28:10.958Z,16.34
2018-07-20T02:30:43.757Z,16.27
2018-07-20T02:33:17.369Z,16.36
2018-07-20T02:35:48.342Z,16.31
2018-07-20T02:38:20.099Z,16.27
2018-07-20T02:40:51.080Z,16.21
2018-07-20T02:43:21.753Z,16.12
2018-07-20T02:45:52.119Z,16.07
2018-07-20T02:48:22.799Z,16.04
2018-07-20T02:50:53.081Z,15.93
2018-07-20T02:53:24.741Z,15.84
2018-07-20T02:55:55.682Z,15.76
2018-07-20T02:58:26.304Z,15.80
2018-07-20T03:00:56.617Z,15.80
2018-07-20T03:03:27.773Z,15.79
2018-07-20T03:05:58.067Z,15.72
2018-07-20T03:08:29.168Z,15.72
2018-07-20T03:10:59.434Z,15.72
2018-07-20T03:13:29.924Z,15.78
2018-07-20T03:16:00.185Z,15.67
2018-07-20T03:18:30.388Z,15.56
2018-07-20T03:21:00.920Z,15.55
2018-07-20T03:23:31.476Z,15.52
2018-07-20T03:26:01.675Z,15.54
2018-07-20T03:28:32.029Z,15.58
2018-07-20T03:31:02.218Z,15.58
2018-07-20T03:33:32.485Z,15.68
2018-07-20T03:36:03.580Z,15.70
2018-07-20T03:38:33.839Z,15.70
2018-07-20T03:41:04.178Z,15.72
2018-07-20T03:43:34.497Z,15.66
2018-07-20T03:46:04.841Z,15.58
2018-07-20T03:48:35.164Z,15.82
2018-07-20T03:51:06.048Z,16.12
2018-07-20T03:53:36.942Z,16.22
2018-07-20T03:56:07.237Z,16.37
2018-07-20T03:58:37.502Z,16.58
2018-07-20T04:01:07.761Z,16.75
2018-07-20T04:03:38.785Z,16.98
2018-07-20T04:06:09.324Z,17.16
2018-07-20T04:08:39.857Z,17.41
2018-07-20T04:11:10.213Z,17.63
2018-07-20T04:13:40.818Z,17.91
2018-07-20T04:16:11.089Z,18.07
2018-07-20T04:18:42.481Z,18.25
2018-07-20T04:21:12.870Z,18.43
2018-07-20T04:23:43.164Z,18.58
2018-07-20T04:26:13.576Z,18.78
2018-07-20T04:28:45.473Z,19.02
2018-07-20T04:31:15.816Z,19.18
2018-07-20T04:33:46.077Z,19.39
2018-07-20T04:36:17.267Z,19.57
2018-07-20T04:38:47.757Z,19.77
2018-07-20T04:41:18.090Z,20.00
2018-07-20T04:43:48.361Z,20.18
2018-07-20T04:46:18.987Z,20.29
2018-07-20T04:48:49.635Z,20.45
2018-07-20T04:51:20.692Z,20.47
2018-07-20T04:53:51.085Z,20.56
2018-07-20T04:56:21.278Z,20.63
2018-07-20T04:58:51.560Z,20.75
2018-07-20T05:01:22.150Z,20.86
2018-07-20T05:03:52.570Z,21.00
2018-07-20T05:06:23.056Z,21.05
2018-07-20T05:08:53.707Z,21.13
2018-07-20T05:11:24.424Z,21.17
2018-07-20T05:13:55.282Z,21.27
2018-07-20T05:16:25.521Z,21.44
2018-07-20T05:18:55.786Z,21.73
2018-07-20T05:21:27.096Z,22.32
2018-07-20T05:23:58.131Z,22.79
2018-07-20T05:26:28.490Z,23.06
2018-07-20T05:28:58.848Z,23.18
2018-07-20T05:31:30.040Z,23.59
2018-07-20T05:34:00.289Z,24.56
2018-07-20T05:36:31.159Z,26.18
2018-07-20T05:39:02.075Z,27.91
2018-07-20T05:41:32.637Z,29.50
2018-07-20T05:44:03.547Z,30.61
2018-07-20T05:46:34.525Z,31.92
2018-07-20T05:49:05.406Z,33.13
2018-07-20T05:51:36.334Z,33.80
2018-07-20T05:54:07.291Z,34.37
2018-07-20T05:56:38.235Z,34.46
2018-07-20T05:59:09.278Z,34.31
2018-07-20T06:01:40.222Z,34.58
2018-07-20T06:04:11.037Z,34.47
2018-07-20T06:06:42.241Z,34.96
2018-07-20T06:09:13.575Z,35.71
2018-07-20T06:11:44.539Z,36.04
2018-07-20T06:14:16.457Z,36.76
2018-07-20T06:16:47.567Z,37.32
2018-07-20T06:19:18.506Z,37.39
2018-07-20T06:21:50.241Z,37.68
2018-07-20T06:24:22.318Z,38.11
2018-07-20T06:26:53.190Z,38.29
2018-07-20T06:29:23.809Z,38.69
2018-07-20T06:31:54.685Z,38.34
2018-07-20T06:34:25.477Z,38.31
2018-07-20T06:36:56.279Z,38.56
2018-07-20T06:39:26.610Z,38.37
2018-07-20T06:41:57.407Z,38.33
2018-07-20T06:44:28.214Z,38.93
2018-07-20T06:46:59.434Z,39.49
2018-07-20T06:49:30.537Z,40.00
2018-07-20T06:52:01.731Z,40.23
2018-07-20T06:54:32.904Z,40.43
2018-07-20T06:57:03.541Z,40.91
2018-07-20T06:59:34.081Z,41.33
2018-07-20T07:02:04.709Z,42.36
2018-07-20T07:04:35.341Z,42.63
2018-07-20T07:07:06.189Z,42.12
2018-07-20T07:09:36.905Z,42.27
2018-07-20T07:12:07.629Z,41.83
2018-07-20T07:14:37.958Z,41.69
2018-07-20T07:17:08.630Z,41.88
2018-07-20T07:19:39.258Z,41.95
2018-07-20T07:22:10.009Z,42.23
2018-07-20T07:24:41.340Z,42.55
2018-07-20T07:27:11.777Z,43.17
2018-07-20T07:29:42.129Z,42.93
2018-07-20T07:32:12.611Z,42.41
2018-07-20T07:34:42.990Z,42.54
2018-07-20T07:37:13.421Z,42.99
2018-07-20T07:39:44.565Z,42.70
2018-07-20T07:42:15.060Z,42.61
2018-07-20T07:44:45.540Z,42.49
2018-07-20T07:47:15.988Z,42.72
2018-07-20T07:49:46.393Z,42.95
2018-07-20T07:52:16.867Z,43.46
2018-07-20T07:54:47.289Z,44.25
2018-07-20T07:57:17.934Z,45.10
2018-07-20T07:59:48.387Z,45.28
2018-07-20T08:02:18.814Z,45.30
2018-07-20T08:04:48.933Z,45.21
2018-07-20T08:07:19.485Z,45.33
2018-07-20T08:09:50.150Z,45.33
2018-07-20T08:12:20.794Z,44.87
2018-07-20T08:14:50.849Z,44.28
2018-07-20T08:17:21.253Z,44.31
2018-07-20T08:19:51.629Z,44.54
2018-07-20T08:22:22.023Z,44.41
2018-07-20T08:24:52.417Z,43.67
2018-07-20T08:27:22.725Z,42.86
2018-07-20T08:29:52.900Z,42.44
2018-07-20T08:32:23.288Z,42.19
2018-07-20T08:34:53.709Z,42.02
2018-07-20T08:37:24.169Z,41.56
2018-07-20T08:39:54.610Z,41.39
2018-07-20T08:42:25.181Z,41.69
2018-07-20T08:44:56.105Z,42.18
2018-07-20T08:47:26.946Z,42.53
2018-07-20T08:49:57.580Z,42.19
2018-07-20T08:52:28.140Z,42.32
2018-07-20T08:54:58.417Z,42.08
2018-07-20T08:57:28.877Z,41.94
2018-07-20T08:59:59.265Z,41.33
2018-07-20T09:02:29.966Z,40.65
2018-07-20T09:05:00.602Z,40.58
2018-07-20T09:07:31.417Z,40.60
2018-07-20T09:10:01.713Z,40.69
2018-07-20T09:12:32.569Z,40.25
2018-07-20T09:15:03.484Z,39.82
2018-07-20T09:17:33.923Z,39.29
2018-07-20T09:20:04.989Z,37.94
2018-07-20T09:22:35.735Z,37.16
2018-07-20T09:25:06.363Z,36.50
2018-07-20T09:27:37.181Z,35.98
2018-07-20T09:30:08.853Z,35.22
2018-07-20T09:32:39.421Z,34.49
2018-07-20T09:35:10.158Z,33.95
2018-07-20T09:37:40.997Z,33.45
2018-07-20T09:40:11.906Z,33.11
2018-07-20T09:42:42.988Z,32.51
2018-07-20T09:45:13.687Z,31.89
2018-07-20T09:47:44.454Z,31.64
2018-07-20T09:50:15.021Z,31.27
2018-07-20T09:52:45.824Z,31.20
2018-07-20T09:55:17.265Z,31.21
2018-07-20T09:57:47.813Z,31.01
2018-07-20T10:00:23.880Z,30.77
2018-07-20T10:02:54.696Z,30.70
2018-07-20T10:05:25.245Z,30.50
2018-07-20T10:07:55.836Z,30.29
2018-07-20T10:10:26.875Z,30.09
2018-07-20T10:12:57.360Z,29.96
2018-07-20T10:15:28.262Z,29.87
2018-07-20T10:17:59.063Z,29.79
2018-07-20T10:20:30.075Z,29.63
2018-07-20T10:23:01.943Z,29.68
2018-07-20T10:25:33.315Z,29.83
2018-07-20T10:28:04.693Z,29.76
2018-07-20T10:30:35.631Z,29.56
2018-07-20T10:33:07.623Z,29.30
2018-07-20T10:35:38.745Z,29.13
2018-07-20T10:38:10.350Z,29.01
2018-07-20T10:40:41.054Z,29.00
2018-07-20T10:43:11.850Z,28.88
2018-07-20T10:45:42.851Z,28.83
2018-07-20T10:48:13.574Z,28.84
2018-07-20T10:50:44.516Z,28.89
2018-07-20T10:53:15.181Z,28.80
2018-07-20T10:55:46.105Z,28.67
2018-07-20T10:58:16.611Z,28.62
2018-07-20T11:00:47.542Z,28.70
2018-07-20T11:03:19.156Z,28.78
2018-07-20T11:05:49.997Z,28.80
2018-07-20T11:08:20.499Z,28.68
2018-07-20T11:10:51.542Z,28.36
2018-07-20T11:13:22.313Z,28.29
2018-07-20T11:15:53.345Z,28.21
2018-07-20T11:18:24.267Z,28.14
2018-07-20T11:20:55.138Z,28.10
2018-07-20T11:23:25.962Z,28.14
2018-07-20T11:25:56.865Z,28.03
2018-07-20T11:28:27.773Z,27.94
2018-07-20T11:30:58.600Z,27.85
2018-07-20T11:33:29.955Z,27.77
2018-07-20T11:36:00.897Z,27.83
2018-07-20T11:38:31.807Z,27.93
2018-07-20T11:41:02.587Z,28.07
2018-07-20T11:43:33.372Z,28.11
2018-07-20T11:46:04.428Z,28.06
2018-07-20T11:48:35.401Z,28.03
2018-07-20T11:51:06.294Z,28.01
2018-07-20T11:53:37.081Z,27.76
2018-07-20T11:56:07.635Z,27.63
2018-07-20T11:58:38.339Z,27.61
2018-07-20T12:01:08.960Z,27.58
2018-07-20T12:03:39.729Z,27.62
2018-07-20T12:06:10.640Z,27.69
2018-07-20T12:08:41.206Z,27.69
2018-07-20T12:11:12.175Z,27.77
2018-07-20T12:13:42.677Z,27.79
2018-07-20T12:16:13.241Z,27.73
2018-07-20T12:18:43.745Z,27.72
2018-07-20T12:21:14.673Z,27.76
2018-07-20T12:23:45.314Z,27.85
2018-07-20T12:26:16.270Z,27.92
2018-07-20T12:28:47.074Z,27.96
2018-07-20T12:31:17.950Z,27.99
2018-07-20T12:33:48.685Z,27.99
2018-07-20T12:36:19.677Z,28.00
2018-07-20T12:38:50.842Z,28.06
2018-07-20T12:41:21.708Z,28.13
2018-07-20T12:43:52.625Z,28.11
2018-07-20T12:46:23.213Z,27.94
2018-07-20T12:48:53.959Z,27.80
2018-07-20T12:51:25.345Z,27.67
2018-07-20T12:53:55.879Z,27.64
2018-07-20T12:56:27.024Z,27.62
2018-07-20T12:58:57.679Z,27.61
2018-07-20T13:01:29.045Z,27.59
2018-07-20T13:03:59.542Z,27.58
2018-07-20T13:06:30.476Z,27.59
2018-07-20T13:09:00.970Z,27.64
2018-07-20T13:11:31.986Z,27.73
2018-07-20T13:14:03.443Z,27.81
2018-07-20T13:16:34.623Z,27.79
2018-07-20T13:19:05.602Z,27.82
2018-07-20T13:21:36.340Z,27.91
2018-07-20T13:24:07.183Z,27.90
2018-07-20T13:26:39.587Z,27.87
2018-07-20T13:29:11.415Z,27.87
2018-07-20T13:31:42.089Z,27.90
2018-07-20T13:34:12.722Z,27.93
2018-07-20T13:36:43.612Z,27.93
2018-07-20T13:39:14.149Z,27.91
2018-07-20T13:41:45.134Z,27.91
2018-07-20T13:44:15.765Z,27.85
2018-07-20T13:46:46.994Z,27.82
2018-07-20T13:49:17.659Z,27.81
2018-07-20T13:51:48.217Z,27.85
2018-07-20T13:54:18.889Z,27.88
2018-07-20T13:56:50.477Z,27.86
2018-07-20T13:59:21.597Z,27.84
2018-07-20T14:01:52.098Z,27.84
2018-07-20T14:04:22.661Z,27.80
2018-07-20T14:06:53.253Z,27.72
2018-07-20T14:09:23.998Z,27.61
2018-07-20T14:11:54.662Z,27.59
2018-07-20T14:14:25.224Z,27.61
2018-07-20T14:16:55.738Z,27.62
2018-07-20T14:19:26.563Z,27.66
2018-07-20T14:21:57.161Z,27.72
2018-07-20T14:24:27.762Z,27.71
2018-07-20T14:26:58.342Z,27.65
2018-07-20T14:29:29.344Z,27.69
2018-07-20T14:31:59.986Z,27.64
2018-07-20T14:34:31.593Z,27.62
2018-07-20T14:37:02.193Z,27.64
2018-07-20T14:39:32.627Z,27.60
2018-07-20T14:42:03.087Z,27.52
2018-07-20T14:44:33.736Z,27.52
2018-07-20T14:47:04.376Z,27.59
2018-07-20T14:49:34.925Z,27.61
2018-07-20T14:52:05.637Z,27.56
2018-07-20T14:54:36.173Z,27.50
2018-07-20T14:57:06.800Z,27.44
2018-07-20T14:59:37.464Z,27.35
2018-07-20T15:02:08.204Z,27.33
2018-07-20T15:04:38.917Z,27.30
2018-07-20T15:07:09.548Z,27.23
2018-07-20T15:09:40.112Z,27.14
2018-07-20T15:12:11.031Z,27.08
2018-07-20T15:14:41.644Z,27.04
2018-07-20T15:17:12.490Z,27.06
2018-07-20T15:19:43.129Z,27.11
2018-07-20T15:22:13.712Z,27.15
2018-07-20T15:24:44.945Z,27.20
2018-07-20T15:27:15.585Z,27.20
2018-07-20T15:29:46.288Z,27.22
2018-07-20T15:32:16.832Z,27.18
2018-07-20T15:34:47.489Z,27.16
2018-07-20T15:37:18.634Z,27.10
2018-07-20T15:39:49.268Z,27.04
2018-07-20T15:42:19.905Z,26.96
2018-07-20T15:51:01.566Z,26.82
2018-07-20T15:53:36.251Z,26.80
2018-07-20T15:56:03.077Z,26.77
2018-07-20T16:23:43.208Z,26.30
2018-07-20T16:26:17.579Z,26.16
2018-07-20T16:32:03.431Z,26.09
2018-07-20T16:34:47.714Z,26.04
2018-07-20T16:37:20.215Z,25.99
2018-07-20T16:43:04.743Z,25.90
2018-07-20T16:45:40.326Z,25.81
2018-07-20T16:48:34.468Z,25.79
2018-07-20T16:51:17.503Z,25.73
2018-07-20T16:53:51.103Z,25.73
2018-07-20T16:56:24.560Z,25.77
2018-07-20T16:58:57.440Z,25.75
2018-07-20T17:01:40.939Z,25.66
2018-07-20T17:07:12.523Z,25.55
2018-07-20T17:09:56.203Z,25.53
2018-07-20T17:12:42.242Z,25.40
2018-07-20T17:15:15.526Z,25.31
2018-07-20T17:18:01.539Z,25.14
2018-07-20T17:20:34.087Z,25.09
2018-07-20T17:23:08.048Z,25.05
2018-07-20T17:25:48.867Z,24.98
2018-07-20T17:28:21.952Z,24.89
2018-07-20T17:31:06.036Z,24.82
2018-07-20T17:33:38.190Z,24.66
2018-07-20T17:36:33.148Z,24.52
2018-07-20T17:39:20.610Z,24.37
2018-07-20T17:41:53.626Z,24.39
2018-07-20T17:44:38.164Z,24.40
2018-07-20T17:47:29.355Z,24.33
2018-07-20T17:53:00.397Z,24.16
2018-07-20T17:55:33.156Z,24.05
2018-07-20T17:58:07.641Z,23.93
2018-07-20T18:00:39.601Z,23.84
2018-07-20T18:03:28.726Z,23.70
2018-07-20T18:06:00.792Z,23.61
2018-07-20T18:08:33.889Z,23.53
2018-07-20T18:11:06.334Z,23.43
2018-07-20T18:13:39.064Z,23.29
2018-07-20T18:16:12.102Z,23.11
2018-07-20T18:18:43.932Z,23.00
2018-07-20T18:21:16.276Z,22.86
2018-07-20T18:23:48.592Z,22.78
2018-07-20T18:26:36.874Z,22.69
2018-07-20T18:32:17.989Z,22.40
2018-07-20T18:37:50.818Z,22.17
2018-07-20T18:40:20.629Z,22.08
2018-07-20T18:42:50.463Z,21.93
2018-07-20T18:45:20.921Z,21.79
2018-07-20T18:47:57.190Z,21.64
2018-07-20T18:50:35.815Z,21.44
2018-07-20T18:53:09.447Z,21.30
2018-07-20T18:55:42.115Z,21.16
2018-07-20T18:58:20.002Z,21.05
2018-07-20T19:00:56.242Z,20.88
2018-07-20T19:06:35.776Z,20.54
2018-07-20T19:09:23.662Z,20.43
2018-07-20T19:12:06.804Z,20.31
2018-07-20T19:14:50.260Z,20.20
2018-07-20T19:17:22.711Z,20.08
2018-07-20T19:20:12.559Z,19.98
2018-07-20T19:22:48.601Z,19.87
2018-07-20T19:25:23.038Z,19.75
2018-07-20T19:27:56.826Z,19.65
2018-07-20T19:33:30.057Z,19.45
2018-07-20T19:36:04.005Z,19.39
2018-07-20T19:38:38.215Z,19.34
2018-07-20T19:41:11.316Z,19.27
2018-07-20T19:43:45.219Z,19.19
2018-07-20T19:46:17.867Z,19.12
2018-07-20T19:48:51.686Z,19.03
2018-07-20T19:51:24.399Z,18.96
2018-07-20T19:53:57.861Z,18.86
2018-07-20T19:56:31.459Z,18.75
2018-07-20T19:59:04.748Z,18.63
2018-07-20T20:01:36.932Z,18.51
2018-07-20T20:04:08.323Z,18.41
2018-07-20T20:06:58.080Z,18.33
2018-07-20T20:09:31.837Z,18.36
2018-07-20T20:12:03.442Z,18.30
2018-07-20T20:14:50.604Z,18.21
2018-07-20T20:17:32.831Z,18.10
2018-07-20T20:25:58.809Z,17.95
2018-07-20T20:28:30.929Z,17.87
2018-07-20T20:31:17.551Z,17.83
2018-07-20T20:34:02.012Z,17.86
2018-07-20T20:36:44.354Z,17.91
2018-07-20T20:39:18.157Z,17.88
2018-07-20T20:42:00.533Z,17.84
2018-07-20T20:44:33.148Z,17.81
2018-07-20T20:50:04.350Z,17.82
2018-07-20T20:52:46.704Z,17.88
2018-07-20T20:55:39.099Z,17.83
2018-07-20T20:58:28.204Z,17.72
2018-07-20T21:00:59.995Z,17.65
2018-07-20T21:03:31.711Z,17.55
2018-07-20T21:06:03.768Z,17.39
2018-07-20T21:08:43.192Z,17.31
2018-07-20T21:11:13.420Z,17.25
2018-07-20T21:16:49.774Z,17.15
2018-07-20T21:19:34.257Z,17.13
2018-07-20T21:22:06.389Z,17.20
2018-07-20T21:24:38.231Z,17.14
2018-07-20T21:27:10.465Z,17.14
2018-07-20T21:29:41.699Z,17.12
2018-07-20T21:32:13.627Z,17.11
2018-07-20T21:34:45.600Z,17.10
2018-07-20T21:37:19.205Z,16.98
2018-07-20T21:39:51.229Z,16.92
2018-07-20T21:42:30.850Z,16.99
2018-07-20T21:45:00.738Z,17.05
2018-07-20T21:47:30.635Z,16.89
2018-07-20T21:50:00.516Z,16.85
2018-07-20T21:52:30.438Z,16.73
2018-07-20T21:58:08.623Z,16.62
2018-07-20T22:00:40.655Z,16.43
2018-07-20T22:03:10.556Z,16.29
2018-07-20T22:05:40.418Z,16.17
2018-07-20T22:08:10.377Z,16.07
2018-07-20T22:10:40.230Z,16.04
2018-07-20T22:13:10.161Z,15.97
2018-07-20T22:15:40.260Z,15.90
2018-07-20T22:18:10.188Z,15.85
2018-07-20T22:20:40.274Z,15.80
2018-07-20T22:23:10.160Z,15.75
2018-07-20T22:25:40.034Z,15.71
2018-07-20T22:28:09.876Z,15.80
2018-07-20T22:30:39.718Z,15.77
2018-07-20T22:33:09.627Z,15.75
2018-07-20T22:35:41.515Z,15.68
2018-07-20T22:38:11.429Z,15.55
2018-07-20T22:40:41.322Z,15.46
2018-07-20T22:43:11.171Z,15.39
2018-07-20T22:45:41.098Z,15.34
2018-07-20T22:48:11.090Z,15.30
2018-07-20T22:50:40.985Z,15.28
2018-07-20T22:53:10.928Z,15.29
2018-07-20T22:55:40.810Z,15.25
2018-07-20T22:58:10.702Z,15.25
2018-07-20T23:00:40.685Z,15.24
2018-07-20T23:03:10.523Z,15.22
2018-07-20T23:05:40.369Z,15.16
2018-07-20T23:08:28.201Z,15.12
2018-07-20T23:10:58.115Z,15.09
2018-07-20T23:13:28.025Z,15.04
2018-07-20T23:15:57.987Z,15.03
2018-07-20T23:18:28.321Z,14.98
2018-07-20T23:24:18.598Z,14.92
2018-07-20T23:26:48.534Z,14.92
2018-07-20T23:29:18.423Z,14.93
2018-07-20T23:34:42.219Z,14.97
2018-07-20T23:37:16.536Z,15.08
2018-07-20T23:45:42.262Z,15.04
2018-07-20T23:48:12.155Z,15.07
2018-07-20T23:50:42.031Z,15.08
2018-07-20T23:53:11.902Z,15.23
2018-07-20T23:55:41.777Z,15.53
2018-07-20T23:58:11.670Z,15.38
